sensor_id;sensor_type;location;lat;lon;timestamp;P1;durP1;ratioP1;P2;durP2;ratioP2
323;SDS011;149;51.094;17.002;2023-07-13T00:00:38;9.83;;;9.00;;
323;SDS011;149;51.094;17.002;2023-07-13T00:03:06;8.80;;;7.93;;
323;SDS011;149;51.094;17.002;2023-07-13T00:05:33;8.03;;;7.33;;
323;SDS011;149;51.094;17.002;2023-07-13T00:08:04;9.57;;;8.40;;
323;SDS011;149;51.094;17.002;2023-07-13T00:10:32;8.27;;;7.37;;
323;SDS011;149;51.094;17.002;2023-07-13T00:13:00;11.67;;;6.90;;
323;SDS011;149;51.094;17.002;2023-07-13T00:15:27;8.50;;;7.30;;
323;SDS011;149;51.094;17.002;2023-07-13T00:17:58;13.30;;;8.30;;
323;SDS011;149;51.094;17.002;2023-07-13T00:20:27;9.00;;;8.17;;
323;SDS011;149;51.094;17.002;2023-07-13T00:22:56;10.10;;;7.80;;
323;SDS011;149;51.094;17.002;2023-07-13T00:25:24;9.10;;;8.27;;
323;SDS011;149;51.094;17.002;2023-07-13T00:27:54;7.77;;;6.37;;
323;SDS011;149;51.094;17.002;2023-07-13T00:30:22;9.23;;;7.97;;
323;SDS011;149;51.094;17.002;2023-07-13T00:32:52;9.10;;;8.10;;
323;SDS011;149;51.094;17.002;2023-07-13T00:35:40;11.93;;;8.90;;
323;SDS011;149;51.094;17.002;2023-07-13T00:38:11;10.40;;;9.33;;
323;SDS011;149;51.094;17.002;2023-07-13T00:40:38;10.17;;;9.00;;
323;SDS011;149;51.094;17.002;2023-07-13T00:43:13;10.03;;;9.17;;
323;SDS011;149;51.094;17.002;2023-07-13T00:48:12;9.37;;;8.57;;
323;SDS011;149;51.094;17.002;2023-07-13T00:50:41;10.90;;;8.67;;
323;SDS011;149;51.094;17.002;2023-07-13T00:53:10;9.87;;;8.87;;
323;SDS011;149;51.094;17.002;2023-07-13T00:55:38;8.97;;;7.93;;
323;SDS011;149;51.094;17.002;2023-07-13T00:58:08;8.40;;;7.70;;
323;SDS011;149;51.094;17.002;2023-07-13T01:00:35;10.20;;;8.37;;
323;SDS011;149;51.094;17.002;2023-07-13T01:03:06;11.27;;;9.40;;
323;SDS011;149;51.094;17.002;2023-07-13T01:05:35;9.70;;;8.70;;
323;SDS011;149;51.094;17.002;2023-07-13T01:08:04;9.40;;;8.50;;
323;SDS011;149;51.094;17.002;2023-07-13T01:10:32;9.90;;;9.07;;
323;SDS011;149;51.094;17.002;2023-07-13T01:13:07;10.53;;;8.90;;
323;SDS011;149;51.094;17.002;2023-07-13T01:15:45;10.17;;;9.17;;
323;SDS011;149;51.094;17.002;2023-07-13T01:18:20;9.67;;;8.77;;
323;SDS011;149;51.094;17.002;2023-07-13T01:23:19;11.20;;;10.20;;
323;SDS011;149;51.094;17.002;2023-07-13T01:25:46;9.67;;;8.70;;
323;SDS011;149;51.094;17.002;2023-07-13T01:28:14;10.03;;;9.07;;
323;SDS011;149;51.094;17.002;2023-07-13T01:30:43;9.30;;;8.47;;
323;SDS011;149;51.094;17.002;2023-07-13T01:33:15;11.70;;;9.80;;
323;SDS011;149;51.094;17.002;2023-07-13T01:35:44;12.70;;;10.10;;
323;SDS011;149;51.094;17.002;2023-07-13T01:38:15;9.07;;;8.27;;
323;SDS011;149;51.094;17.002;2023-07-13T01:40:43;8.30;;;7.50;;
323;SDS011;149;51.094;17.002;2023-07-13T01:43:11;10.67;;;9.20;;
323;SDS011;149;51.094;17.002;2023-07-13T01:45:39;10.53;;;8.67;;
323;SDS011;149;51.094;17.002;2023-07-13T01:48:09;9.50;;;8.53;;
323;SDS011;149;51.094;17.002;2023-07-13T01:50:37;10.03;;;9.13;;
323;SDS011;149;51.094;17.002;2023-07-13T01:53:06;10.37;;;9.37;;
323;SDS011;149;51.094;17.002;2023-07-13T01:55:34;8.87;;;8.10;;
323;SDS011;149;51.094;17.002;2023-07-13T01:58:02;9.00;;;8.10;;
323;SDS011;149;51.094;17.002;2023-07-13T02:00:30;9.40;;;8.50;;
323;SDS011;149;51.094;17.002;2023-07-13T02:02:57;9.17;;;8.20;;
323;SDS011;149;51.094;17.002;2023-07-13T02:05:25;8.97;;;8.17;;
323;SDS011;149;51.094;17.002;2023-07-13T02:07:53;12.57;;;9.93;;
323;SDS011;149;51.094;17.002;2023-07-13T02:10:20;9.70;;;7.87;;
323;SDS011;149;51.094;17.002;2023-07-13T02:12:48;11.70;;;10.37;;
323;SDS011;149;51.094;17.002;2023-07-13T02:15:17;15.80;;;9.50;;
323;SDS011;149;51.094;17.002;2023-07-13T02:17:45;11.03;;;9.93;;
323;SDS011;149;51.094;17.002;2023-07-13T02:20:14;10.13;;;9.23;;
323;SDS011;149;51.094;17.002;2023-07-13T02:22:41;10.67;;;8.80;;
323;SDS011;149;51.094;17.002;2023-07-13T02:25:09;9.97;;;8.97;;
323;SDS011;149;51.094;17.002;2023-07-13T02:27:36;11.77;;;10.67;;
323;SDS011;149;51.094;17.002;2023-07-13T02:30:04;9.37;;;8.43;;
323;SDS011;149;51.094;17.002;2023-07-13T02:32:31;8.87;;;8.03;;
323;SDS011;149;51.094;17.002;2023-07-13T02:35:00;8.97;;;8.27;;
323;SDS011;149;51.094;17.002;2023-07-13T02:37:28;10.00;;;8.40;;
323;SDS011;149;51.094;17.002;2023-07-13T02:39:56;11.40;;;9.40;;
323;SDS011;149;51.094;17.002;2023-07-13T02:42:23;8.43;;;7.63;;
323;SDS011;149;51.094;17.002;2023-07-13T02:44:51;8.77;;;8.03;;
323;SDS011;149;51.094;17.002;2023-07-13T02:47:18;8.27;;;7.23;;
323;SDS011;149;51.094;17.002;2023-07-13T02:49:46;10.70;;;6.90;;
323;SDS011;149;51.094;17.002;2023-07-13T02:52:13;7.57;;;6.93;;
323;SDS011;149;51.094;17.002;2023-07-13T02:54:41;8.17;;;7.47;;
323;SDS011;149;51.094;17.002;2023-07-13T02:57:08;7.53;;;6.83;;
323;SDS011;149;51.094;17.002;2023-07-13T02:59:37;8.60;;;7.80;;
323;SDS011;149;51.094;17.002;2023-07-13T03:02:06;8.83;;;7.50;;
323;SDS011;149;51.094;17.002;2023-07-13T03:04:37;9.07;;;8.20;;
323;SDS011;149;51.094;17.002;2023-07-13T03:07:04;9.87;;;8.33;;
323;SDS011;149;51.094;17.002;2023-07-13T03:09:33;8.20;;;7.47;;
323;SDS011;149;51.094;17.002;2023-07-13T03:12:01;9.10;;;8.37;;
323;SDS011;149;51.094;17.002;2023-07-13T03:14:32;8.80;;;7.90;;
323;SDS011;149;51.094;17.002;2023-07-13T03:17:01;8.10;;;7.30;;
323;SDS011;149;51.094;17.002;2023-07-13T03:19:29;9.10;;;8.30;;
323;SDS011;149;51.094;17.002;2023-07-13T03:21:56;8.33;;;7.50;;
323;SDS011;149;51.094;17.002;2023-07-13T03:24:24;9.30;;;8.40;;
323;SDS011;149;51.094;17.002;2023-07-13T03:26:52;9.67;;;8.87;;
323;SDS011;149;51.094;17.002;2023-07-13T03:29:25;8.53;;;7.50;;
323;SDS011;149;51.094;17.002;2023-07-13T03:31:58;7.63;;;7.03;;
323;SDS011;149;51.094;17.002;2023-07-13T03:34:25;9.50;;;8.57;;
323;SDS011;149;51.094;17.002;2023-07-13T03:36:54;9.33;;;7.83;;
323;SDS011;149;51.094;17.002;2023-07-13T03:39:21;9.10;;;8.20;;
323;SDS011;149;51.094;17.002;2023-07-13T03:41:54;9.27;;;8.47;;
323;SDS011;149;51.094;17.002;2023-07-13T03:44:24;8.80;;;7.90;;
323;SDS011;149;51.094;17.002;2023-07-13T03:46:52;8.67;;;7.77;;
323;SDS011;149;51.094;17.002;2023-07-13T03:49:20;9.63;;;7.63;;
323;SDS011;149;51.094;17.002;2023-07-13T03:51:47;10.47;;;7.70;;
323;SDS011;149;51.094;17.002;2023-07-13T03:54:19;7.90;;;7.20;;
323;SDS011;149;51.094;17.002;2023-07-13T03:56:46;8.60;;;6.97;;
323;SDS011;149;51.094;17.002;2023-07-13T03:59:14;7.73;;;7.10;;
323;SDS011;149;51.094;17.002;2023-07-13T04:01:41;7.87;;;7.17;;
323;SDS011;149;51.094;17.002;2023-07-13T04:04:10;10.93;;;6.30;;
323;SDS011;149;51.094;17.002;2023-07-13T04:06:38;6.40;;;5.80;;
323;SDS011;149;51.094;17.002;2023-07-13T04:09:05;11.30;;;6.80;;
323;SDS011;149;51.094;17.002;2023-07-13T04:11:33;7.50;;;6.90;;
323;SDS011;149;51.094;17.002;2023-07-13T04:14:05;7.70;;;6.17;;
323;SDS011;149;51.094;17.002;2023-07-13T04:16:47;8.27;;;7.47;;
323;SDS011;149;51.094;17.002;2023-07-13T04:19:37;8.70;;;7.27;;
323;SDS011;149;51.094;17.002;2023-07-13T04:22:05;8.93;;;6.93;;
323;SDS011;149;51.094;17.002;2023-07-13T04:24:34;6.83;;;6.13;;
323;SDS011;149;51.094;17.002;2023-07-13T04:27:02;7.63;;;7.00;;
323;SDS011;149;51.094;17.002;2023-07-13T04:29:29;6.90;;;6.30;;
323;SDS011;149;51.094;17.002;2023-07-13T04:31:56;8.00;;;6.10;;
323;SDS011;149;51.094;17.002;2023-07-13T04:34:24;6.30;;;5.37;;
323;SDS011;149;51.094;17.002;2023-07-13T04:36:51;7.43;;;5.70;;
323;SDS011;149;51.094;17.002;2023-07-13T04:39:19;8.30;;;5.73;;
323;SDS011;149;51.094;17.002;2023-07-13T04:41:47;9.20;;;6.83;;
323;SDS011;149;51.094;17.002;2023-07-13T04:44:17;10.43;;;7.63;;
323;SDS011;149;51.094;17.002;2023-07-13T04:46:45;10.07;;;8.90;;
323;SDS011;149;51.094;17.002;2023-07-13T04:49:15;9.60;;;8.70;;
323;SDS011;149;51.094;17.002;2023-07-13T04:51:45;9.30;;;8.50;;
323;SDS011;149;51.094;17.002;2023-07-13T04:54:14;10.70;;;9.77;;
323;SDS011;149;51.094;17.002;2023-07-13T04:56:44;11.00;;;10.10;;
323;SDS011;149;51.094;17.002;2023-07-13T04:59:13;11.57;;;10.53;;
323;SDS011;149;51.094;17.002;2023-07-13T05:01:43;11.10;;;10.20;;
323;SDS011;149;51.094;17.002;2023-07-13T05:04:15;10.30;;;9.50;;
323;SDS011;149;51.094;17.002;2023-07-13T05:06:43;10.00;;;9.20;;
323;SDS011;149;51.094;17.002;2023-07-13T05:09:10;10.10;;;9.40;;
323;SDS011;149;51.094;17.002;2023-07-13T05:11:39;10.87;;;9.90;;
323;SDS011;149;51.094;17.002;2023-07-13T05:14:09;9.83;;;8.87;;
323;SDS011;149;51.094;17.002;2023-07-13T05:16:37;11.37;;;10.43;;
323;SDS011;149;51.094;17.002;2023-07-13T05:19:04;12.57;;;10.60;;
323;SDS011;149;51.094;17.002;2023-07-13T05:21:32;11.30;;;10.30;;
323;SDS011;149;51.094;17.002;2023-07-13T05:23:59;11.03;;;9.97;;
323;SDS011;149;51.094;17.002;2023-07-13T05:26:44;10.63;;;9.20;;
323;SDS011;149;51.094;17.002;2023-07-13T05:29:12;10.17;;;9.57;;
323;SDS011;149;51.094;17.002;2023-07-13T05:31:40;11.10;;;10.40;;
323;SDS011;149;51.094;17.002;2023-07-13T05:34:07;10.03;;;9.03;;
323;SDS011;149;51.094;17.002;2023-07-13T05:36:35;10.37;;;9.57;;
323;SDS011;149;51.094;17.002;2023-07-13T05:39:03;12.87;;;11.77;;
323;SDS011;149;51.094;17.002;2023-07-13T05:41:30;12.03;;;11.10;;
323;SDS011;149;51.094;17.002;2023-07-13T05:43:58;11.10;;;10.17;;
323;SDS011;149;51.094;17.002;2023-07-13T05:46:25;11.77;;;10.73;;
323;SDS011;149;51.094;17.002;2023-07-13T05:48:52;12.93;;;12.07;;
323;SDS011;149;51.094;17.002;2023-07-13T05:51:23;12.60;;;11.40;;
323;SDS011;149;51.094;17.002;2023-07-13T05:53:50;14.33;;;13.13;;
323;SDS011;149;51.094;17.002;2023-07-13T05:56:18;13.30;;;12.20;;
323;SDS011;149;51.094;17.002;2023-07-13T05:58:47;12.87;;;11.77;;
323;SDS011;149;51.094;17.002;2023-07-13T06:01:15;12.33;;;10.53;;
323;SDS011;149;51.094;17.002;2023-07-13T06:03:43;12.50;;;11.60;;
323;SDS011;149;51.094;17.002;2023-07-13T06:06:10;13.10;;;12.00;;
323;SDS011;149;51.094;17.002;2023-07-13T06:08:39;14.30;;;12.87;;
323;SDS011;149;51.094;17.002;2023-07-13T06:11:14;12.73;;;11.83;;
323;SDS011;149;51.094;17.002;2023-07-13T06:13:43;12.77;;;11.70;;
323;SDS011;149;51.094;17.002;2023-07-13T06:16:10;11.47;;;10.33;;
323;SDS011;149;51.094;17.002;2023-07-13T06:18:39;11.73;;;10.73;;
323;SDS011;149;51.094;17.002;2023-07-13T06:21:08;13.77;;;12.67;;
323;SDS011;149;51.094;17.002;2023-07-13T06:23:36;13.30;;;11.87;;
323;SDS011;149;51.094;17.002;2023-07-13T06:26:06;11.37;;;10.67;;
323;SDS011;149;51.094;17.002;2023-07-13T06:28:35;11.33;;;10.73;;
323;SDS011;149;51.094;17.002;2023-07-13T06:31:04;12.30;;;11.40;;
323;SDS011;149;51.094;17.002;2023-07-13T06:33:33;10.53;;;9.93;;
323;SDS011;149;51.094;17.002;2023-07-13T06:36:01;10.00;;;9.40;;
323;SDS011;149;51.094;17.002;2023-07-13T06:38:29;8.90;;;8.40;;
323;SDS011;149;51.094;17.002;2023-07-13T06:40:56;11.07;;;10.37;;
323;SDS011;149;51.094;17.002;2023-07-13T06:43:24;10.23;;;9.33;;
323;SDS011;149;51.094;17.002;2023-07-13T06:45:53;11.00;;;10.40;;
323;SDS011;149;51.094;17.002;2023-07-13T06:48:22;11.03;;;10.33;;
323;SDS011;149;51.094;17.002;2023-07-13T06:50:51;11.90;;;11.10;;
323;SDS011;149;51.094;17.002;2023-07-13T06:53:21;12.40;;;11.57;;
323;SDS011;149;51.094;17.002;2023-07-13T06:55:49;12.60;;;10.93;;
323;SDS011;149;51.094;17.002;2023-07-13T06:58:16;9.60;;;9.00;;
323;SDS011;149;51.094;17.002;2023-07-13T07:00:44;11.33;;;9.57;;
323;SDS011;149;51.094;17.002;2023-07-13T07:03:17;10.30;;;9.60;;
323;SDS011;149;51.094;17.002;2023-07-13T07:05:45;11.90;;;10.70;;
323;SDS011;149;51.094;17.002;2023-07-13T07:08:13;12.50;;;11.40;;
323;SDS011;149;51.094;17.002;2023-07-13T07:10:41;12.20;;;11.30;;
323;SDS011;149;51.094;17.002;2023-07-13T07:15:41;11.90;;;10.83;;
323;SDS011;149;51.094;17.002;2023-07-13T07:18:09;11.73;;;10.90;;
323;SDS011;149;51.094;17.002;2023-07-13T07:20:37;12.20;;;10.93;;
323;SDS011;149;51.094;17.002;2023-07-13T07:23:18;12.93;;;11.60;;
323;SDS011;149;51.094;17.002;2023-07-13T07:25:47;11.90;;;10.83;;
323;SDS011;149;51.094;17.002;2023-07-13T07:28:15;13.83;;;11.63;;
323;SDS011;149;51.094;17.002;2023-07-13T07:30:49;13.17;;;12.07;;
323;SDS011;149;51.094;17.002;2023-07-13T07:33:39;12.23;;;11.40;;
323;SDS011;149;51.094;17.002;2023-07-13T07:36:07;13.37;;;12.13;;
323;SDS011;149;51.094;17.002;2023-07-13T07:38:37;12.90;;;11.80;;
323;SDS011;149;51.094;17.002;2023-07-13T07:41:07;10.50;;;9.50;;
323;SDS011;149;51.094;17.002;2023-07-13T07:43:37;10.67;;;9.97;;
323;SDS011;149;51.094;17.002;2023-07-13T07:46:05;11.07;;;9.40;;
323;SDS011;149;51.094;17.002;2023-07-13T07:48:32;12.10;;;11.17;;
323;SDS011;149;51.094;17.002;2023-07-13T07:51:00;12.60;;;11.37;;
323;SDS011;149;51.094;17.002;2023-07-13T07:53:28;12.10;;;10.57;;
323;SDS011;149;51.094;17.002;2023-07-13T07:55:59;12.00;;;11.00;;
323;SDS011;149;51.094;17.002;2023-07-13T07:58:46;13.37;;;12.07;;
323;SDS011;149;51.094;17.002;2023-07-13T08:01:16;10.50;;;9.60;;
323;SDS011;149;51.094;17.002;2023-07-13T08:03:47;11.60;;;10.60;;
323;SDS011;149;51.094;17.002;2023-07-13T08:06:17;11.53;;;10.73;;
323;SDS011;149;51.094;17.002;2023-07-13T08:08:49;12.13;;;11.10;;
323;SDS011;149;51.094;17.002;2023-07-13T08:11:16;15.20;;;13.93;;
323;SDS011;149;51.094;17.002;2023-07-13T08:13:46;14.90;;;13.80;;
323;SDS011;149;51.094;17.002;2023-07-13T08:16:17;13.60;;;12.67;;
323;SDS011;149;51.094;17.002;2023-07-13T08:18:44;13.00;;;12.00;;
323;SDS011;149;51.094;17.002;2023-07-13T08:21:11;12.47;;;11.50;;
323;SDS011;149;51.094;17.002;2023-07-13T08:23:39;11.73;;;10.93;;
323;SDS011;149;51.094;17.002;2023-07-13T08:26:07;11.83;;;11.13;;
323;SDS011;149;51.094;17.002;2023-07-13T08:28:35;11.87;;;11.20;;
323;SDS011;149;51.094;17.002;2023-07-13T08:31:03;10.47;;;9.77;;
323;SDS011;149;51.094;17.002;2023-07-13T08:33:31;10.97;;;10.17;;
323;SDS011;149;51.094;17.002;2023-07-13T08:35:58;11.30;;;10.30;;
323;SDS011;149;51.094;17.002;2023-07-13T08:38:27;12.63;;;11.53;;
323;SDS011;149;51.094;17.002;2023-07-13T08:40:55;11.77;;;10.87;;
323;SDS011;149;51.094;17.002;2023-07-13T08:46:08;12.37;;;11.47;;
323;SDS011;149;51.094;17.002;2023-07-13T08:59:14;12.00;;;11.10;;
323;SDS011;149;51.094;17.002;2023-07-13T09:12:32;8.87;;;8.07;;
323;SDS011;149;51.094;17.002;2023-07-13T09:15:02;8.47;;;7.67;;
323;SDS011;149;51.094;17.002;2023-07-13T09:17:32;7.77;;;7.17;;
323;SDS011;149;51.094;17.002;2023-07-13T09:20:21;7.80;;;7.17;;
323;SDS011;149;51.094;17.002;2023-07-13T09:22:52;7.37;;;6.77;;
323;SDS011;149;51.094;17.002;2023-07-13T09:25:35;7.40;;;6.83;;
323;SDS011;149;51.094;17.002;2023-07-13T09:28:09;8.33;;;6.50;;
323;SDS011;149;51.094;17.002;2023-07-13T09:30:40;7.57;;;6.87;;
323;SDS011;149;51.094;17.002;2023-07-13T09:33:10;5.93;;;5.43;;
323;SDS011;149;51.094;17.002;2023-07-13T09:35:37;5.73;;;5.27;;
323;SDS011;149;51.094;17.002;2023-07-13T09:40:39;6.33;;;5.83;;
323;SDS011;149;51.094;17.002;2023-07-13T09:43:07;5.17;;;4.77;;
323;SDS011;149;51.094;17.002;2023-07-13T09:45:37;5.60;;;5.10;;
323;SDS011;149;51.094;17.002;2023-07-13T09:48:06;5.83;;;5.30;;
323;SDS011;149;51.094;17.002;2023-07-13T09:50:37;5.83;;;5.40;;
323;SDS011;149;51.094;17.002;2023-07-13T09:53:09;6.70;;;5.10;;
323;SDS011;149;51.094;17.002;2023-07-13T09:55:39;5.70;;;5.20;;
323;SDS011;149;51.094;17.002;2023-07-13T09:58:12;6.07;;;5.20;;
323;SDS011;149;51.094;17.002;2023-07-13T10:00:42;5.60;;;5.20;;
323;SDS011;149;51.094;17.002;2023-07-13T10:05:45;8.33;;;7.63;;
323;SDS011;149;51.094;17.002;2023-07-13T10:08:47;8.47;;;5.40;;
323;SDS011;149;51.094;17.002;2023-07-13T10:11:11;6.27;;;4.80;;
323;SDS011;149;51.094;17.002;2023-07-13T10:16:23;5.07;;;4.67;;
323;SDS011;149;51.094;17.002;2023-07-13T10:18:53;5.20;;;4.70;;
323;SDS011;149;51.094;17.002;2023-07-13T10:21:23;6.37;;;5.87;;
323;SDS011;149;51.094;17.002;2023-07-13T10:26:52;4.13;;;3.70;;
323;SDS011;149;51.094;17.002;2023-07-13T10:29:22;6.17;;;4.10;;
323;SDS011;149;51.094;17.002;2023-07-13T10:31:51;6.57;;;4.13;;
323;SDS011;149;51.094;17.002;2023-07-13T10:34:19;7.23;;;5.37;;
323;SDS011;149;51.094;17.002;2023-07-13T10:36:47;4.27;;;3.93;;
323;SDS011;149;51.094;17.002;2023-07-13T10:39:16;4.27;;;3.90;;
323;SDS011;149;51.094;17.002;2023-07-13T10:41:45;4.30;;;3.90;;
323;SDS011;149;51.094;17.002;2023-07-13T10:44:17;4.13;;;3.87;;
323;SDS011;149;51.094;17.002;2023-07-13T10:46:46;4.23;;;3.07;;
323;SDS011;149;51.094;17.002;2023-07-13T10:49:14;6.77;;;6.20;;
323;SDS011;149;51.094;17.002;2023-07-13T10:51:41;3.87;;;3.57;;
323;SDS011;149;51.094;17.002;2023-07-13T10:56:46;4.00;;;3.80;;
323;SDS011;149;51.094;17.002;2023-07-13T11:04:26;4.07;;;3.77;;
323;SDS011;149;51.094;17.002;2023-07-13T11:06:56;3.70;;;3.50;;
323;SDS011;149;51.094;17.002;2023-07-13T11:11:56;5.30;;;3.40;;
323;SDS011;149;51.094;17.002;2023-07-13T11:14:37;4.17;;;3.70;;
323;SDS011;149;51.094;17.002;2023-07-13T11:17:24;3.90;;;3.67;;
323;SDS011;149;51.094;17.002;2023-07-13T11:19:52;4.87;;;4.47;;
323;SDS011;149;51.094;17.002;2023-07-13T11:22:21;6.10;;;4.20;;
323;SDS011;149;51.094;17.002;2023-07-13T11:24:57;4.27;;;3.87;;
323;SDS011;149;51.094;17.002;2023-07-13T11:27:44;4.97;;;4.30;;
323;SDS011;149;51.094;17.002;2023-07-13T11:30:25;5.73;;;4.60;;
323;SDS011;149;51.094;17.002;2023-07-13T11:33:11;5.33;;;4.83;;
323;SDS011;149;51.094;17.002;2023-07-13T11:38:37;3.40;;;3.20;;
323;SDS011;149;51.094;17.002;2023-07-13T11:41:06;4.23;;;3.87;;
323;SDS011;149;51.094;17.002;2023-07-13T11:43:34;6.70;;;3.60;;
323;SDS011;149;51.094;17.002;2023-07-13T11:46:14;4.07;;;3.73;;
323;SDS011;149;51.094;17.002;2023-07-13T11:48:42;4.43;;;3.30;;
323;SDS011;149;51.094;17.002;2023-07-13T11:51:15;4.50;;;3.73;;
323;SDS011;149;51.094;17.002;2023-07-13T11:53:47;3.70;;;3.50;;
323;SDS011;149;51.094;17.002;2023-07-13T11:56:16;12.07;;;4.00;;
323;SDS011;149;51.094;17.002;2023-07-13T11:58:44;5.73;;;3.13;;
323;SDS011;149;51.094;17.002;2023-07-13T12:01:22;3.80;;;3.60;;
323;SDS011;149;51.094;17.002;2023-07-13T12:03:51;3.93;;;3.63;;
323;SDS011;149;51.094;17.002;2023-07-13T12:06:30;4.10;;;3.80;;
323;SDS011;149;51.094;17.002;2023-07-13T12:08:59;3.87;;;3.57;;
323;SDS011;149;51.094;17.002;2023-07-13T12:11:27;4.60;;;4.23;;
323;SDS011;149;51.094;17.002;2023-07-13T12:13:55;6.60;;;3.83;;
323;SDS011;149;51.094;17.002;2023-07-13T12:16:26;3.80;;;3.60;;
323;SDS011;149;51.094;17.002;2023-07-13T12:18:55;4.20;;;3.90;;
323;SDS011;149;51.094;17.002;2023-07-13T12:21:25;4.03;;;3.70;;
323;SDS011;149;51.094;17.002;2023-07-13T12:23:55;3.83;;;3.50;;
323;SDS011;149;51.094;17.002;2023-07-13T12:26:22;3.90;;;3.50;;
323;SDS011;149;51.094;17.002;2023-07-13T12:28:53;4.03;;;3.73;;
323;SDS011;149;51.094;17.002;2023-07-13T12:34:07;4.93;;;3.30;;
323;SDS011;149;51.094;17.002;2023-07-13T12:36:37;4.90;;;3.67;;
323;SDS011;149;51.094;17.002;2023-07-13T12:39:15;4.00;;;3.70;;
323;SDS011;149;51.094;17.002;2023-07-13T12:41:47;3.70;;;3.40;;
323;SDS011;149;51.094;17.002;2023-07-13T12:44:15;3.70;;;3.40;;
323;SDS011;149;51.094;17.002;2023-07-13T12:46:56;4.17;;;3.77;;
323;SDS011;149;51.094;17.002;2023-07-13T12:49:25;4.00;;;3.60;;
323;SDS011;149;51.094;17.002;2023-07-13T12:51:58;4.33;;;3.93;;
323;SDS011;149;51.094;17.002;2023-07-13T12:54:26;3.43;;;3.23;;
323;SDS011;149;51.094;17.002;2023-07-13T12:56:54;4.13;;;3.27;;
323;SDS011;149;51.094;17.002;2023-07-13T12:59:22;3.73;;;3.43;;
323;SDS011;149;51.094;17.002;2023-07-13T13:01:53;4.13;;;3.73;;
323;SDS011;149;51.094;17.002;2023-07-13T13:04:20;3.70;;;3.50;;
323;SDS011;149;51.094;17.002;2023-07-13T13:06:49;5.67;;;4.00;;
323;SDS011;149;51.094;17.002;2023-07-13T13:09:27;3.27;;;3.07;;
323;SDS011;149;51.094;17.002;2023-07-13T13:11:55;3.93;;;3.47;;
323;SDS011;149;51.094;17.002;2023-07-13T13:14:22;3.70;;;3.40;;
323;SDS011;149;51.094;17.002;2023-07-13T13:16:50;4.70;;;4.30;;
323;SDS011;149;51.094;17.002;2023-07-13T13:19:25;4.10;;;3.80;;
323;SDS011;149;51.094;17.002;2023-07-13T13:21:55;3.80;;;3.50;;
323;SDS011;149;51.094;17.002;2023-07-13T13:24:25;3.50;;;3.20;;
323;SDS011;149;51.094;17.002;2023-07-13T13:26:53;3.30;;;3.00;;
323;SDS011;149;51.094;17.002;2023-07-13T13:29:23;5.27;;;2.83;;
323;SDS011;149;51.094;17.002;2023-07-13T13:31:51;3.77;;;3.47;;
323;SDS011;149;51.094;17.002;2023-07-13T13:34:19;3.83;;;3.57;;
323;SDS011;149;51.094;17.002;2023-07-13T13:36:49;3.67;;;3.33;;
323;SDS011;149;51.094;17.002;2023-07-13T13:39:23;3.03;;;2.83;;
323;SDS011;149;51.094;17.002;2023-07-13T13:41:52;4.00;;;3.57;;
323;SDS011;149;51.094;17.002;2023-07-13T13:44:20;3.20;;;3.00;;
323;SDS011;149;51.094;17.002;2023-07-13T13:46:49;4.43;;;3.20;;
323;SDS011;149;51.094;17.002;2023-07-13T13:49:18;7.20;;;3.90;;
323;SDS011;149;51.094;17.002;2023-07-13T13:51:48;3.80;;;3.50;;
323;SDS011;149;51.094;17.002;2023-07-13T13:54:16;3.47;;;3.23;;
323;SDS011;149;51.094;17.002;2023-07-13T13:56:45;6.50;;;3.70;;
323;SDS011;149;51.094;17.002;2023-07-13T13:59:15;5.20;;;3.70;;
323;SDS011;149;51.094;17.002;2023-07-13T14:02:01;3.20;;;3.00;;
323;SDS011;149;51.094;17.002;2023-07-13T14:04:28;3.20;;;3.00;;
323;SDS011;149;51.094;17.002;2023-07-13T14:06:56;2.93;;;2.70;;
323;SDS011;149;51.094;17.002;2023-07-13T14:09:27;3.33;;;3.03;;
323;SDS011;149;51.094;17.002;2023-07-13T14:11:55;3.13;;;2.83;;
323;SDS011;149;51.094;17.002;2023-07-13T14:14:24;6.00;;;3.20;;
323;SDS011;149;51.094;17.002;2023-07-13T14:16:55;2.60;;;2.50;;
323;SDS011;149;51.094;17.002;2023-07-13T14:19:24;4.60;;;2.90;;
323;SDS011;149;51.094;17.002;2023-07-13T14:21:52;3.13;;;2.83;;
323;SDS011;149;51.094;17.002;2023-07-13T14:24:20;3.20;;;3.00;;
323;SDS011;149;51.094;17.002;2023-07-13T14:26:47;4.00;;;3.10;;
323;SDS011;149;51.094;17.002;2023-07-13T14:29:17;5.43;;;2.93;;
323;SDS011;149;51.094;17.002;2023-07-13T14:31:49;3.97;;;3.10;;
323;SDS011;149;51.094;17.002;2023-07-13T14:34:17;2.87;;;2.67;;
323;SDS011;149;51.094;17.002;2023-07-13T14:36:45;2.60;;;2.50;;
323;SDS011;149;51.094;17.002;2023-07-13T14:39:17;5.13;;;3.20;;
323;SDS011;149;51.094;17.002;2023-07-13T14:41:45;3.80;;;2.70;;
323;SDS011;149;51.094;17.002;2023-07-13T14:44:13;3.50;;;3.20;;
323;SDS011;149;51.094;17.002;2023-07-13T14:46:41;2.93;;;2.73;;
323;SDS011;149;51.094;17.002;2023-07-13T14:49:14;2.70;;;2.50;;
323;SDS011;149;51.094;17.002;2023-07-13T14:51:42;4.00;;;3.10;;
323;SDS011;149;51.094;17.002;2023-07-13T14:54:09;3.33;;;3.07;;
323;SDS011;149;51.094;17.002;2023-07-13T14:56:40;3.20;;;3.00;;
323;SDS011;149;51.094;17.002;2023-07-13T14:59:09;3.50;;;3.13;;
323;SDS011;149;51.094;17.002;2023-07-13T15:01:36;3.90;;;3.53;;
323;SDS011;149;51.094;17.002;2023-07-13T15:04:04;4.27;;;3.07;;
323;SDS011;149;51.094;17.002;2023-07-13T15:06:35;3.00;;;2.73;;
323;SDS011;149;51.094;17.002;2023-07-13T15:09:19;3.30;;;2.77;;
323;SDS011;149;51.094;17.002;2023-07-13T15:11:47;3.53;;;3.27;;
323;SDS011;149;51.094;17.002;2023-07-13T15:14:14;3.13;;;2.93;;
323;SDS011;149;51.094;17.002;2023-07-13T15:16:41;2.57;;;2.47;;
323;SDS011;149;51.094;17.002;2023-07-13T15:19:11;2.97;;;2.70;;
323;SDS011;149;51.094;17.002;2023-07-13T15:21:38;3.13;;;2.93;;
323;SDS011;149;51.094;17.002;2023-07-13T15:24:07;3.57;;;3.27;;
323;SDS011;149;51.094;17.002;2023-07-13T15:26:35;3.10;;;2.90;;
323;SDS011;149;51.094;17.002;2023-07-13T15:29:02;3.50;;;3.20;;
323;SDS011;149;51.094;17.002;2023-07-13T15:31:30;3.67;;;3.30;;
323;SDS011;149;51.094;17.002;2023-07-13T15:33:59;3.50;;;3.20;;
323;SDS011;149;51.094;17.002;2023-07-13T15:36:27;4.90;;;3.70;;
323;SDS011;149;51.094;17.002;2023-07-13T15:38:56;4.00;;;3.70;;
323;SDS011;149;51.094;17.002;2023-07-13T15:41:24;4.10;;;3.60;;
323;SDS011;149;51.094;17.002;2023-07-13T15:43:54;3.70;;;3.50;;
323;SDS011;149;51.094;17.002;2023-07-13T15:46:22;3.23;;;3.03;;
323;SDS011;149;51.094;17.002;2023-07-13T15:48:50;3.53;;;3.23;;
323;SDS011;149;51.094;17.002;2023-07-13T15:51:23;6.93;;;4.53;;
323;SDS011;149;51.094;17.002;2023-07-13T15:53:54;4.27;;;3.63;;
323;SDS011;149;51.094;17.002;2023-07-13T15:56:25;3.30;;;3.10;;
323;SDS011;149;51.094;17.002;2023-07-13T15:58:53;3.73;;;3.03;;
323;SDS011;149;51.094;17.002;2023-07-13T16:01:22;3.33;;;3.13;;
323;SDS011;149;51.094;17.002;2023-07-13T16:03:51;3.50;;;3.30;;
323;SDS011;149;51.094;17.002;2023-07-13T16:06:20;3.80;;;3.50;;
323;SDS011;149;51.094;17.002;2023-07-13T16:08:49;3.73;;;3.43;;
323;SDS011;149;51.094;17.002;2023-07-13T16:11:22;3.90;;;3.60;;
323;SDS011;149;51.094;17.002;2023-07-13T16:13:50;3.80;;;3.50;;
323;SDS011;149;51.094;17.002;2023-07-13T16:16:28;4.13;;;3.83;;
323;SDS011;149;51.094;17.002;2023-07-13T16:18:57;3.50;;;3.30;;
323;SDS011;149;51.094;17.002;2023-07-13T16:21:26;3.90;;;3.60;;
323;SDS011;149;51.094;17.002;2023-07-13T16:23:54;4.57;;;4.10;;
323;SDS011;149;51.094;17.002;2023-07-13T16:26:32;3.97;;;3.67;;
323;SDS011;149;51.094;17.002;2023-07-13T16:29:27;4.90;;;3.97;;
323;SDS011;149;51.094;17.002;2023-07-13T16:32:13;4.17;;;3.87;;
323;SDS011;149;51.094;17.002;2023-07-13T16:34:42;4.53;;;4.17;;
323;SDS011;149;51.094;17.002;2023-07-13T16:37:17;4.20;;;3.90;;